Time;durP1;ratioP1;P1;durP2;ratioP2;P2;SDS_P1;SDS_P2;PMS_P1;PMS_P2;Temp;Humidity;BMP_temperature;BMP_pressure;BME280_temperature;BME280_humidity;BME280_pressure;Samples;Min_cycle;Max_cycle;Signal;HPM_P1;HPM_P2
2021/06/23 00:00:29;;;;;;;3.78;2.10;;;;;;;22.99;42.36;102406.50;5022072;28;20380;-66
2021/06/23 00:02:55;;;;;;;3.05;1.88;;;;;;;22.99;42.42;102409.19;5019920;28;20133;-66
2021/06/23 00:05:21;;;;;;;2.08;1.60;;;;;;;22.98;42.45;102408.34;4996309;28;20192;-66
2021/06/23 00:07:47;;;;;;;3.17;1.77;;;;;;;22.98;42.01;102411.03;5010330;28;20033;-68
2021/06/23 00:10:15;;;;;;;2.85;1.63;;;;;;;23.00;42.30;102413.53;5010116;28;20034;-66
2021/06/23 00:12:42;;;;;;;2.42;1.45;;;;;;;22.99;42.14;102409.19;4996706;28;20070;-66
2021/06/23 00:15:12;;;;;;;4.90;1.95;;;;;;;22.99;42.37;102411.88;5002698;28;20065;-66
2021/06/23 00:17:37;;;;;;;3.60;1.88;;;;;;;22.99;42.13;102403.84;5005872;28;20030;-67
2021/06/23 00:20:04;;;;;;;2.70;1.60;;;;;;;22.99;42.27;102398.47;5010712;28;20578;-66
2021/06/23 00:22:29;;;;;;;2.72;1.63;;;;;;;22.99;42.52;102399.31;5010103;28;20030;-66
2021/06/23 00:24:55;;;;;;;2.10;1.30;;;;;;;22.98;42.09;102404.84;5005315;28;20057;-66
2021/06/23 00:27:20;;;;;;;4.70;1.83;;;;;;;22.99;42.27;102407.34;5001384;28;20065;-66
2021/06/23 00:29:46;;;;;;;3.28;2.10;;;;;;;22.98;42.17;102396.81;4996526;28;20038;-66
2021/06/23 00:32:14;;;;;;;5.60;2.38;;;;;;;22.98;42.07;102394.16;5010306;28;20046;-66
2021/06/23 00:34:39;;;;;;;3.75;1.85;;;;;;;22.99;42.28;102393.97;5009051;28;20473;-66
2021/06/23 00:37:05;;;;;;;2.58;1.52;;;;;;;22.99;42.32;102391.28;4976374;28;20141;-66
2021/06/23 00:39:31;;;;;;;2.80;1.48;;;;;;;22.98;42.27;102381.59;5003383;28;20045;-68
2021/06/23 00:41:56;;;;;;;2.53;1.35;;;;;;;22.98;42.21;102386.94;5008369;28;20030;-67
2021/06/23 00:44:22;;;;;;;2.72;1.80;;;;;;;22.99;42.11;102387.78;5009909;28;20507;-68
2021/06/23 00:46:48;;;;;;;2.58;1.58;;;;;;;22.99;42.35;102385.94;5009091;28;20034;-66
2021/06/23 00:49:13;;;;;;;2.85;1.58;;;;;;;22.99;42.37;102379.75;5008751;28;20062;-66
2021/06/23 00:51:39;;;;;;;3.33;1.80;;;;;;;22.98;42.14;102380.75;5001954;28;20118;-64
2021/06/23 00:54:11;;;;;;;2.60;1.75;;;;;;;22.98;42.08;102384.28;5016554;28;20033;-63
2021/06/23 00:56:37;;;;;;;1.98;1.55;;;;;;;22.99;42.12;102374.41;5016354;28;20042;-66
2021/06/23 00:59:05;;;;;;;3.97;1.85;;;;;;;23.00;42.23;102381.41;5019928;28;20026;-64
2021/06/23 01:01:33;;;;;;;2.20;1.42;;;;;;;22.99;42.19;102372.56;5016056;28;20026;-65
2021/06/23 01:04:00;;;;;;;2.33;1.40;;;;;;;22.99;42.13;102377.91;5018380;28;20037;-65
2021/06/23 01:06:26;;;;;;;1.90;1.40;;;;;;;23.00;41.98;102381.41;4991821;28;20570;-66
2021/06/23 01:08:52;;;;;;;2.83;1.48;;;;;;;22.99;42.45;102375.22;5009219;28;20038;-64
2021/06/23 01:11:20;;;;;;;2.13;1.40;;;;;;;22.99;42.22;102375.22;5004198;28;20041;-64
2021/06/23 01:13:57;;;;;;;2.22;1.50;;;;;;;22.99;42.22;102377.91;5001235;28;20029;-64
2021/06/23 01:16:25;;;;;;;1.80;1.30;;;;;;;22.99;41.99;102371.72;5008420;28;20026;-63
2021/06/23 01:18:51;;;;;;;2.58;1.40;;;;;;;22.99;42.43;102377.06;5009781;28;20061;-64
2021/06/23 01:21:17;;;;;;;1.95;1.52;;;;;;;22.99;42.16;102382.44;4990999;28;20441;-67
2021/06/23 01:23:42;;;;;;;2.58;1.42;;;;;;;22.98;42.21;102373.56;5002188;28;20035;-64
2021/06/23 01:26:08;;;;;;;1.77;1.30;;;;;;;22.99;42.30;102371.72;4990511;28;20424;-64
2021/06/23 01:28:33;;;;;;;1.88;1.40;;;;;;;22.98;42.21;102372.72;5008803;28;20046;-63
2021/06/23 01:30:59;;;;;;;2.60;1.58;;;;;;;22.99;42.25;102371.72;5000072;28;20038;-64
2021/06/23 01:33:26;;;;;;;4.38;1.77;;;;;;;22.99;42.08;102374.41;5002003;28;20034;-63
2021/06/23 01:35:53;;;;;;;2.63;1.50;;;;;;;22.99;42.05;102371.72;5008842;28;20053;-65
2021/06/23 01:38:19;;;;;;;2.70;1.48;;;;;;;22.99;42.40;102375.22;5008901;28;20021;-64
2021/06/23 01:40:45;;;;;;;2.08;1.40;;;;;;;22.99;42.31;102371.72;5009047;28;20113;-63
2021/06/23 01:43:11;;;;;;;2.72;1.40;;;;;;;22.99;42.06;102369.88;5009413;28;20089;-64
2021/06/23 01:45:38;;;;;;;2.30;1.40;;;;;;;23.00;42.25;102365.34;5009321;28;20619;-65
2021/06/23 01:48:05;;;;;;;2.25;1.30;;;;;;;23.00;42.32;102366.19;5008995;28;20040;-63
2021/06/23 01:50:30;;;;;;;2.65;1.40;;;;;;;22.98;42.49;102352.16;5008100;28;20174;-63
2021/06/23 01:52:56;;;;;;;2.25;1.40;;;;;;;22.99;42.06;102359.16;5006492;28;20362;-64
2021/06/23 01:55:28;;;;;;;1.83;1.10;;;;;;;22.97;42.46;102350.50;5009053;28;20137;-64
2021/06/23 01:58:09;;;;;;;1.85;1.30;;;;;;;22.97;42.06;102355.84;5009006;28;20125;-64
2021/06/23 02:00:54;;;;;;;2.50;1.50;;;;;;;22.98;42.42;102362.03;5009669;28;20049;-63
2021/06/23 02:03:46;;;;;;;2.58;1.60;;;;;;;22.95;42.09;102354.38;4985350;28;20104;-63
2021/06/23 02:06:40;;;;;;;2.67;1.35;;;;;;;22.95;42.52;102357.88;5000265;28;20042;-72
2021/06/23 02:09:17;;;;;;;1.92;1.30;;;;;;;22.96;42.52;102348.00;5008916;28;20102;-65
2021/06/23 02:11:46;;;;;;;1.70;1.20;;;;;;;22.99;42.20;102352.97;5009028;28;20124;-63
2021/06/23 02:14:30;;;;;;;2.20;1.30;;;;;;;22.95;42.42;102352.53;5008663;28;20477;-63
2021/06/23 02:16:56;;;;;;;1.40;1.20;;;;;;;22.98;42.22;102356.69;4994742;28;20397;-66
2021/06/23 02:19:22;;;;;;;1.73;1.20;;;;;;;22.98;42.56;102351.31;5008646;28;20145;-64
2021/06/23 02:21:48;;;;;;;1.98;1.20;;;;;;;22.98;42.24;102352.16;5007633;28;20392;-64
2021/06/23 02:24:14;;;;;;;1.70;1.13;;;;;;;22.99;42.30;102355.66;5009249;28;20037;-70
2021/06/23 02:26:40;;;;;;;1.50;1.27;;;;;;;22.98;42.46;102352.16;5008384;28;20050;-64
2021/06/23 02:29:06;;;;;;;1.40;1.13;;;;;;;22.98;42.22;102352.16;5009453;28;20044;-65
2021/06/23 02:31:36;;;;;;;1.77;1.30;;;;;;;22.98;42.24;102344.13;4996474;28;20038;-67
2021/06/23 02:34:05;;;;;;;2.15;1.20;;;;;;;22.99;42.08;102342.28;5007990;28;20129;-63
2021/06/23 02:36:30;;;;;;;1.65;1.10;;;;;;;22.99;42.30;102336.94;5007263;28;20068;-64
2021/06/23 02:38:56;;;;;;;2.00;1.27;;;;;;;22.97;42.28;102331.75;5007357;28;20049;-64
2021/06/23 02:41:22;;;;;;;2.78;1.60;;;;;;;22.98;42.14;102324.56;5008807;28;20178;-64
2021/06/23 02:43:47;;;;;;;1.95;1.20;;;;;;;22.98;42.01;102330.75;5008479;28;20452;-66
2021/06/23 02:46:13;;;;;;;2.20;1.20;;;;;;;22.99;42.15;102326.22;5005827;28;20084;-64
2021/06/23 02:48:40;;;;;;;1.85;1.17;;;;;;;23.00;42.30;102333.22;4987544;28;20050;-67
2021/06/23 02:51:09;;;;;;;3.03;1.23;;;;;;;22.98;42.31;102327.25;4983540;28;20058;-63
2021/06/23 02:53:34;;;;;;;2.20;1.20;;;;;;;22.98;42.45;102322.72;4979649;28;20026;-64
2021/06/23 02:56:00;;;;;;;1.30;1.02;;;;;;;22.97;42.09;102317.53;4989089;28;20046;-63
2021/06/23 02:58:26;;;;;;;1.60;1.08;;;;;;;22.98;42.19;102317.38;4988765;28;20343;-65
2021/06/23 03:00:52;;;;;;;2.00;1.00;;;;;;;22.99;42.22;102323.53;4988522;28;20049;-67
2021/06/23 03:03:19;;;;;;;1.67;1.10;;;;;;;22.98;42.31;102319.22;4988930;28;20046;-63
2021/06/23 03:05:45;;;;;;;1.83;1.23;;;;;;;22.98;42.54;102320.03;4990424;28;20046;-64
2021/06/23 03:08:10;;;;;;;1.77;1.25;;;;;;;22.98;42.30;102313.84;4991992;28;20659;-63
2021/06/23 03:10:36;;;;;;;1.10;0.93;;;;;;;22.97;42.36;102313.03;4990095;28;20101;-65
2021/06/23 03:13:02;;;;;;;1.88;1.15;;;;;;;22.97;42.28;102313.03;4992161;28;20031;-64
2021/06/23 03:15:28;;;;;;;1.92;1.17;;;;;;;22.98;42.37;102313.84;4992456;28;20126;-64
2021/06/23 03:17:53;;;;;;;1.70;1.27;;;;;;;22.97;42.54;102312.19;4991710;28;20129;-65
2021/06/23 03:20:19;;;;;;;1.88;1.08;;;;;;;22.97;42.56;102307.69;4991850;28;20497;-67
2021/06/23 03:22:44;;;;;;;1.52;1.02;;;;;;;22.98;42.37;102308.50;4990326;28;20154;-65
2021/06/23 03:25:10;;;;;;;1.80;1.00;;;;;;;22.97;42.16;102299.66;4991544;28;20050;-64
2021/06/23 03:27:36;;;;;;;1.77;1.00;;;;;;;22.97;42.51;102299.66;4992171;28;20045;-66
2021/06/23 03:30:02;;;;;;;2.00;1.20;;;;;;;22.97;42.59;102294.28;4991495;28;20030;-64
2021/06/23 03:32:28;;;;;;;2.67;1.10;;;;;;;22.97;42.37;102293.47;4991696;28;20041;-64
2021/06/23 03:34:54;;;;;;;1.48;1.00;;;;;;;22.97;42.64;102296.13;4990997;28;20035;-63
2021/06/23 03:37:19;;;;;;;1.92;1.40;;;;;;;22.97;42.14;102296.97;4975077;28;20038;-71
2021/06/23 03:39:45;;;;;;;1.38;0.90;;;;;;;22.97;42.50;102293.47;4975818;28;20034;-64
2021/06/23 03:42:10;;;;;;;1.52;0.90;;;;;;;22.97;42.34;102293.47;4983081;28;20110;-63
2021/06/23 03:44:36;;;;;;;1.73;0.90;;;;;;;22.95;42.57;102292.81;4991369;28;20053;-64
2021/06/23 03:47:02;;;;;;;2.30;0.95;;;;;;;22.96;42.49;102295.31;4989270;28;20037;-64
2021/06/23 03:49:28;;;;;;;1.30;1.05;;;;;;;22.96;42.72;102302.50;4997323;28;20077;-64
2021/06/23 03:51:54;;;;;;;1.70;1.20;;;;;;;22.97;42.34;102296.13;4989444;28;20050;-65
2021/06/23 03:54:20;;;;;;;1.63;1.08;;;;;;;22.96;42.45;102297.16;5001779;28;20080;-63
2021/06/23 03:56:45;;;;;;;1.02;0.93;;;;;;;22.97;42.53;102296.13;4977075;28;20049;-64
2021/06/23 03:59:11;;;;;;;1.15;0.90;;;;;;;22.95;42.50;102295.50;4986265;28;20057;-66
2021/06/23 04:01:36;;;;;;;1.20;1.00;;;;;;;22.96;42.42;102299.84;4997223;28;20110;-64
2021/06/23 04:04:01;;;;;;;0.88;0.73;;;;;;;22.95;42.61;102298.16;4998022;28;20042;-63
2021/06/23 04:06:28;;;;;;;1.00;0.90;;;;;;;22.95;42.36;102293.66;4990578;28;20030;-65
2021/06/23 04:08:54;;;;;;;1.52;0.93;;;;;;;22.96;42.55;102297.16;4990871;28;20697;-63
2021/06/23 04:11:19;;;;;;;1.35;0.90;;;;;;;22.95;42.65;102288.28;4992072;28;20046;-63
2021/06/23 04:13:45;;;;;;;1.35;0.80;;;;;;;22.95;42.74;102292.81;4987855;28;20069;-63
2021/06/23 04:16:12;;;;;;;0.90;0.80;;;;;;;22.94;42.76;102286.63;4995928;28;20046;-68
2021/06/23 04:18:37;;;;;;;1.10;0.90;;;;;;;22.95;42.39;102290.97;4984004;28;20557;-63
2021/06/23 04:21:04;;;;;;;1.83;1.02;;;;;;;22.96;42.77;102289.97;4993094;28;20117;-64
2021/06/23 04:23:29;;;;;;;1.65;1.00;;;;;;;22.96;42.89;102291.81;4994396;28;20142;-64
2021/06/23 04:25:55;;;;;;;1.33;0.80;;;;;;;22.95;42.81;102290.16;5000687;28;20176;-64
2021/06/23 04:28:20;;;;;;;1.42;1.00;;;;;;;22.96;42.55;102289.13;5005906;28;20035;-64
2021/06/23 04:30:46;;;;;;;1.50;1.10;;;;;;;22.94;42.63;102286.63;4998603;28;20065;-64
2021/06/23 04:33:11;;;;;;;1.10;0.90;;;;;;;22.95;42.66;102288.28;4995573;28;20453;-64
2021/06/23 04:35:37;;;;;;;1.35;0.95;;;;;;;22.95;42.96;102288.28;4989488;28;20026;-65
2021/06/23 04:38:03;;;;;;;1.20;0.82;;;;;;;22.95;42.70;102290.97;4990692;28;20066;-64
2021/06/23 04:40:28;;;;;;;1.42;0.90;;;;;;;22.96;42.88;102299.84;4991228;28;20430;-64
2021/06/23 04:42:53;;;;;;;1.05;0.90;;;;;;;22.95;42.61;102293.66;5003286;28;20033;-64
2021/06/23 04:45:19;;;;;;;1.10;0.70;;;;;;;22.95;42.53;102292.81;5000579;28;20038;-64
2021/06/23 04:47:44;;;;;;;1.00;0.80;;;;;;;22.95;42.76;102293.66;4971963;28;20053;-63
2021/06/23 04:50:10;;;;;;;1.08;0.82;;;;;;;22.95;42.55;102287.47;4987855;28;20138;-65
2021/06/23 04:52:37;;;;;;;1.75;1.08;;;;;;;22.95;42.97;102282.94;4989107;28;20031;-66
2021/06/23 04:55:04;;;;;;;1.15;0.90;;;;;;;22.95;42.77;102282.13;4989892;28;20036;-67
2021/06/23 04:57:29;;;;;;;1.00;0.80;;;;;;;22.95;42.94;102282.13;4986659;28;20041;-64
2021/06/23 04:59:55;;;;;;;1.23;0.70;;;;;;;22.95;42.82;102284.78;4988294;28;20476;-64
2021/06/23 05:02:20;;;;;;;0.85;0.80;;;;;;;22.94;42.90;102275.94;4989005;28;20114;-63
2021/06/23 05:04:47;;;;;;;1.33;0.85;;;;;;;22.94;42.98;102283.13;4988891;28;20042;-65
2021/06/23 05:07:12;;;;;;;1.25;0.80;;;;;;;22.94;42.60;102280.47;4987592;28;20034;-67
2021/06/23 05:09:39;;;;;;;2.25;0.90;;;;;;;22.94;42.81;102291.16;4987542;28;20433;-64
2021/06/23 05:12:07;;;;;;;0.82;0.70;;;;;;;22.95;42.80;102287.47;4988410;28;20130;-63
2021/06/23 05:14:32;;;;;;;0.85;0.75;;;;;;;22.93;42.92;102284.97;4988115;28;20061;-65
2021/06/23 05:16:58;;;;;;;1.67;0.70;;;;;;;22.94;42.89;102292.00;4989840;28;20057;-64
2021/06/23 05:19:23;;;;;;;0.90;0.80;;;;;;;22.94;42.60;102291.16;4990016;28;20030;-63
2021/06/23 05:21:50;;;;;;;0.93;0.80;;;;;;;22.94;42.61;102286.63;4988430;28;20470;-65
2021/06/23 05:24:17;;;;;;;1.85;0.70;;;;;;;22.93;42.90;102293.00;4989917;28;20710;-64
2021/06/23 05:26:43;;;;;;;0.70;0.70;;;;;;;22.93;42.49;102295.69;4989210;28;20030;-66
2021/06/23 05:29:09;;;;;;;1.55;0.90;;;;;;;22.94;42.46;102296.50;4989397;28;20524;-67
2021/06/23 05:31:34;;;;;;;0.70;0.70;;;;;;;22.92;42.72;102296.69;4987124;28;20085;-65
2021/06/23 05:34:00;;;;;;;0.90;0.77;;;;;;;22.92;42.78;102299.38;4988687;28;20038;-67
2021/06/23 05:36:26;;;;;;;1.20;0.70;;;;;;;22.93;42.59;102306.38;4980034;28;20042;-67
2021/06/23 05:38:53;;;;;;;1.17;0.70;;;;;;;22.93;42.75;102295.69;4985032;28;20038;-66
2021/06/23 05:41:18;;;;;;;0.88;0.80;;;;;;;22.93;43.07;102300.22;4989618;28;20061;-64
2021/06/23 05:43:44;;;;;;;1.35;0.70;;;;;;;22.92;42.99;102302.06;4989226;28;20065;-64
2021/06/23 05:46:09;;;;;;;1.00;0.70;;;;;;;22.93;43.07;102302.88;4976605;28;20098;-65
2021/06/23 05:48:35;;;;;;;0.80;0.70;;;;;;;22.92;42.85;102303.91;4993144;28;20050;-64
2021/06/23 05:51:00;;;;;;;0.82;0.60;;;;;;;22.91;42.68;102300.38;5008699;28;20040;-64
2021/06/23 05:53:26;;;;;;;0.80;0.70;;;;;;;22.91;42.84;102303.06;5008313;28;20048;-65
2021/06/23 05:55:54;;;;;;;0.70;0.60;;;;;;;22.92;43.04;102309.25;5008154;28;20034;-65
2021/06/23 05:58:20;;;;;;;1.15;0.80;;;;;;;22.92;42.70;102311.94;4992769;28;20133;-66
2021/06/23 06:00:45;;;;;;;0.85;0.70;;;;;;;22.92;42.70;102306.56;5007965;28;20116;-64
2021/06/23 06:03:11;;;;;;;1.75;0.70;;;;;;;22.92;42.91;102309.25;5009528;28;20042;-65
2021/06/23 06:05:36;;;;;;;0.90;0.63;;;;;;;22.92;42.84;102314.59;5008253;28;20084;-65
2021/06/23 06:08:02;;;;;;;0.80;0.70;;;;;;;22.91;42.65;102313.78;5008284;28;20030;-65
2021/06/23 06:10:27;;;;;;;0.90;0.60;;;;;;;22.92;43.07;102314.59;5008979;28;20117;-66
2021/06/23 06:12:53;;;;;;;1.27;0.70;;;;;;;22.90;42.62;102312.09;5008306;28;20465;-64
2021/06/23 06:15:18;;;;;;;1.00;0.70;;;;;;;22.90;42.64;102312.09;5008822;28;20038;-64
2021/06/23 06:17:44;;;;;;;0.68;0.57;;;;;;;22.91;42.86;102304.91;5008271;28;20030;-64
2021/06/23 06:20:11;;;;;;;0.77;0.70;;;;;;;22.90;43.14;102305.94;4990918;28;20034;-66
2021/06/23 06:22:36;;;;;;;1.10;0.70;;;;;;;22.91;42.97;102307.59;5008183;28;20063;-66
2021/06/23 06:25:03;;;;;;;0.88;0.65;;;;;;;22.90;42.99;102306.75;5007950;28;20045;-64
2021/06/23 06:27:28;;;;;;;0.98;0.60;;;;;;;22.91;42.79;102307.59;5008667;28;20092;-67
2021/06/23 06:29:54;;;;;;;0.63;0.50;;;;;;;22.90;43.06;102314.78;5007792;28;20478;-64
2021/06/23 06:32:19;;;;;;;0.70;0.60;;;;;;;22.89;42.78;102312.28;5008566;28;20044;-65
2021/06/23 06:34:45;;;;;;;1.40;0.90;;;;;;;22.90;43.03;102316.63;5008235;28;20034;-67
2021/06/23 06:37:10;;;;;;;0.57;0.55;;;;;;;22.90;43.10;102319.31;5005708;28;20775;-68
2021/06/23 06:39:36;;;;;;;2.95;0.65;;;;;;;22.90;43.20;102313.97;4989112;28;20446;-62
2021/06/23 06:42:03;;;;;;;1.83;0.68;;;;;;;22.89;43.24;102315.81;4988355;28;20042;-65
2021/06/23 06:44:31;;;;;;;5.88;0.70;;;;;;;22.91;43.14;102315.63;4993076;28;20096;-64
2021/06/23 06:46:58;;;;;;;4.35;1.08;;;;;;;22.90;43.46;102316.63;5004627;28;20046;-64
2021/06/23 06:49:27;;;;;;;3.60;0.65;;;;;;;22.92;44.12;102317.28;5011915;28;20042;-64
2021/06/23 06:51:57;;;;;;;3.10;0.82;;;;;;;22.93;44.23;102318.94;4994477;28;20126;-65
2021/06/23 06:54:22;;;;;;;3.47;0.70;;;;;;;22.94;44.24;102324.09;5015398;28;20334;-64
2021/06/23 06:56:48;;;;;;;4.85;0.90;;;;;;;22.95;44.80;102319.59;5013869;28;20099;-64
2021/06/23 06:59:13;;;;;;;3.08;1.00;;;;;;;22.95;44.83;102319.59;5003400;28;20046;-64
2021/06/23 07:01:39;;;;;;;3.67;0.85;;;;;;;22.96;45.02;102326.59;5011235;28;20088;-64
2021/06/23 07:04:04;;;;;;;4.45;0.90;;;;;;;22.97;45.13;102317.53;4989427;28;20386;-72
2021/06/23 07:06:30;;;;;;;3.00;0.77;;;;;;;22.96;45.26;102319.41;4987684;28;20505;-63
2021/06/23 07:08:55;;;;;;;2.50;0.73;;;;;;;22.97;45.01;102322.91;4997167;28;20041;-63
2021/06/23 07:11:21;;;;;;;2.33;0.90;;;;;;;22.97;45.09;102321.06;4997294;28;20049;-65
2021/06/23 07:13:46;;;;;;;2.28;0.50;;;;;;;22.96;45.35;102322.06;4992801;28;20437;-64
2021/06/23 07:16:12;;;;;;;2.08;0.80;;;;;;;22.96;45.19;102315.88;4975244;28;20076;-64
2021/06/23 07:18:37;;;;;;;1.73;0.57;;;;;;;22.97;45.71;102317.53;4994240;28;20081;-65
2021/06/23 07:21:03;;;;;;;1.67;0.80;;;;;;;22.97;45.89;102328.25;4991014;28;20734;-65
2021/06/23 07:23:28;;;;;;;1.80;0.70;;;;;;;22.97;45.69;102318.38;4978904;28;20038;-62
2021/06/23 07:25:54;;;;;;;1.52;0.63;;;;;;;22.97;45.97;102325.56;4992196;28;20038;-64
2021/06/23 07:28:28;;;;;;;3.97;0.75;;;;;;;22.96;45.96;102316.72;4998909;28;20272;-64
2021/06/23 07:30:53;;;;;;;3.83;0.65;;;;;;;22.96;45.96;102314.03;4990210;28;20118;-66
2021/06/23 07:33:19;;;;;;;5.97;0.95;;;;;;;22.97;45.71;102318.38;4995295;28;20034;-64
2021/06/23 07:38:28;;;;;;;5.65;1.00;;;;;;;22.97;46.22;102321.06;5006501;28;20413;-65
2021/06/23 07:43:22;;;;;;;10.20;1.08;;;;;;;22.96;46.35;102319.41;5004634;28;20062;-66
2021/06/23 07:45:53;;;;;;;9.10;1.83;;;;;;;22.96;46.06;102316.72;4987215;28;20065;-71
2021/06/23 07:48:29;;;;;;;9.05;1.65;;;;;;;22.96;46.11;102319.41;5011204;28;20042;-69
2021/06/23 07:51:06;;;;;;;10.80;2.05;;;;;;;22.95;46.36;102323.09;4975768;28;20212;-70
2021/06/23 08:01:16;;;;;;;9.55;1.92;;;;;;;22.93;46.32;102321.63;4967001;28;20057;-70
2021/06/23 08:10:12;;;;;;;9.93;2.20;;;;;;;22.81;46.38;102321.19;5002634;28;20044;-70
2021/06/23 08:12:58;;;;;;;5.70;1.73;;;;;;;22.80;46.44;102316.84;4987058;28;20042;-71
2021/06/23 08:15:25;;;;;;;5.60;1.73;;;;;;;22.78;46.33;102318.88;5003734;28;20044;-69
2021/06/23 08:17:51;;;;;;;5.55;1.85;;;;;;;22.75;46.26;102319.25;5009367;28;20084;-70
2021/06/23 08:20:17;;;;;;;5.65;1.88;;;;;;;22.73;46.43;102310.56;4990766;28;20042;-70
2021/06/23 08:22:42;;;;;;;5.70;1.60;;;;;;;22.70;46.60;102313.59;5009564;28;20045;-70
2021/06/23 08:25:08;;;;;;;4.72;1.70;;;;;;;22.67;46.72;102306.75;5009985;28;20112;-70
2021/06/23 08:27:34;;;;;;;6.43;1.55;;;;;;;22.65;46.82;102316.81;5009824;28;20068;-69
2021/06/23 08:29:59;;;;;;;4.25;1.17;;;;;;;22.62;46.90;102311.00;5009878;28;20062;-70
2021/06/23 08:32:25;;;;;;;5.90;1.92;;;;;;;22.60;47.07;102315.69;5010340;28;20030;-69
2021/06/23 08:34:50;;;;;;;5.45;1.48;;;;;;;22.56;46.86;102315.22;5008805;28;20049;-70
2021/06/23 08:37:16;;;;;;;4.60;1.58;;;;;;;22.54;46.95;102317.22;5007389;28;20370;-69
2021/06/23 08:39:42;;;;;;;3.63;1.10;;;;;;;22.54;47.37;102316.41;4998626;28;20545;-70
2021/06/23 08:42:10;;;;;;;2.78;1.00;;;;;;;22.52;47.47;102311.25;4997345;28;20041;-69
2021/06/23 08:44:36;;;;;;;3.20;1.17;;;;;;;22.52;47.32;102319.25;5003742;28;20172;-69
2021/06/23 08:47:03;;;;;;;2.10;0.70;;;;;;;22.51;47.59;102311.41;5003146;28;20030;-69
2021/06/23 08:49:29;;;;;;;2.92;0.90;;;;;;;22.49;47.15;102310.78;5009249;28;20133;-70
2021/06/23 08:51:56;;;;;;;2.20;0.60;;;;;;;22.48;47.39;102303.75;5007944;28;20045;-69
2021/06/23 08:54:23;;;;;;;2.35;0.75;;;;;;;22.45;47.90;102304.97;5009553;28;20519;-70
2021/06/23 08:56:49;;;;;;;3.13;0.85;;;;;;;22.46;47.89;102306.63;5009897;28;20030;-70
2021/06/23 08:59:15;;;;;;;1.80;0.70;;;;;;;22.43;47.78;102304.31;5006013;28;20038;-69
2021/06/23 09:01:45;;;;;;;2.05;0.70;;;;;;;22.40;47.77;102304.66;5009754;28;20143;-70
2021/06/23 09:04:14;;;;;;;2.08;0.45;;;;;;;22.37;47.94;102305.84;5008991;28;20104;-70
2021/06/23 09:06:58;;;;;;;1.98;0.55;;;;;;;22.32;47.92;102299.38;4991414;28;20334;-70
2021/06/23 09:09:30;;;;;;;2.72;0.77;;;;;;;22.34;48.09;102300.03;5009137;28;20362;-70
2021/06/23 09:11:58;;;;;;;1.35;0.60;;;;;;;22.37;47.91;102297.00;5009694;28;20026;-70
2021/06/23 09:14:29;;;;;;;3.22;0.60;;;;;;;22.38;48.19;102291.47;5009290;28;20033;-70
2021/06/23 09:17:25;;;;;;;1.58;0.63;;;;;;;22.33;48.18;102301.88;5009610;28;20034;-70
2021/06/23 09:19:59;;;;;;;0.80;0.50;;;;;;;22.38;48.08;102295.97;4988646;28;20049;-70
2021/06/23 09:22:35;;;;;;;1.80;0.70;;;;;;;22.36;48.48;102287.31;4993520;28;20029;-70
2021/06/23 09:25:05;;;;;;;2.83;0.65;;;;;;;22.35;48.15;102297.16;5008698;28;20037;-70
2021/06/23 09:27:31;;;;;;;1.85;0.57;;;;;;;22.35;48.04;102291.81;5010168;28;20117;-70
2021/06/23 09:30:31;;;;;;;1.58;0.60;;;;;;;22.31;48.21;102287.03;5007279;28;20117;-70
2021/06/23 09:33:08;;;;;;;1.27;0.60;;;;;;;22.31;48.21;102284.34;4985152;28;20037;-70
2021/06/23 09:35:35;;;;;;;0.60;0.40;;;;;;;22.31;48.13;102281.69;5005176;28;20118;-70
2021/06/23 09:38:01;;;;;;;1.88;0.73;;;;;;;22.29;48.25;102283.69;4980522;28;20033;-71
2021/06/23 09:40:30;;;;;;;1.02;0.40;;;;;;;22.28;48.56;102284.72;5002303;28;20097;-70
2021/06/23 09:43:02;;;;;;;0.60;0.47;;;;;;;22.27;48.27;102288.41;4991785;28;20037;-70
2021/06/23 09:45:30;;;;;;;1.20;0.55;;;;;;;22.26;48.40;102281.38;4995388;28;20497;-70
2021/06/23 09:48:00;;;;;;;1.23;0.60;;;;;;;22.24;48.64;102284.22;4992555;28;20037;-70
2021/06/23 09:50:28;;;;;;;0.75;0.40;;;;;;;22.25;48.70;102269.88;5007938;28;20413;-70
2021/06/23 09:53:01;;;;;;;2.08;0.40;;;;;;;22.26;48.56;102281.38;5008639;28;20060;-70
2021/06/23 09:55:52;;;;;;;2.67;0.75;;;;;;;22.23;48.57;102273.69;5008375;28;20040;-69
2021/06/23 09:58:21;;;;;;;1.35;0.60;;;;;;;22.28;48.67;102284.72;4996253;28;20069;-70
2021/06/23 10:01:00;;;;;;;1.05;0.55;;;;;;;22.22;48.75;102280.91;5007939;28;20129;-70
2021/06/23 10:03:29;;;;;;;1.23;0.60;;;;;;;22.24;49.08;102283.38;5008797;28;20496;-70
2021/06/23 10:05:54;;;;;;;1.35;0.70;;;;;;;22.22;48.61;102280.06;5005670;28;20042;-70
2021/06/23 10:08:22;;;;;;;2.03;0.60;;;;;;;22.23;48.60;102287.91;5008786;28;20061;-70
2021/06/23 10:10:48;;;;;;;1.55;0.70;;;;;;;22.23;48.91;102279.06;5008439;28;20050;-69
2021/06/23 10:13:15;;;;;;;1.13;0.70;;;;;;;22.22;48.99;102280.91;5009197;28;20072;-70
2021/06/23 10:15:41;;;;;;;1.70;0.77;;;;;;;22.22;48.74;102288.09;5011647;28;20065;-69
2021/06/23 10:18:09;;;;;;;0.90;0.70;;;;;;;22.24;48.75;102286.06;5012142;28;20033;-70
2021/06/23 10:20:34;;;;;;;1.65;0.60;;;;;;;22.25;48.86;102288.59;5012075;28;20493;-70
2021/06/23 10:23:03;;;;;;;2.20;1.13;;;;;;;22.23;48.97;102277.22;4996000;28;20322;-70
2021/06/23 10:25:30;;;;;;;1.33;0.70;;;;;;;22.23;48.79;102284.41;5012476;28;20037;-70
2021/06/23 10:27:56;;;;;;;1.02;0.70;;;;;;;22.22;49.05;102288.09;5012533;28;20033;-69
2021/06/23 10:30:27;;;;;;;1.92;1.02;;;;;;;22.21;48.99;102286.41;5012929;28;20571;-69
2021/06/23 10:32:53;;;;;;;1.65;0.90;;;;;;;22.21;48.91;102284.56;5012596;28;20036;-71
2021/06/23 10:35:19;;;;;;;2.85;0.70;;;;;;;22.20;48.98;102285.59;5011303;28;20030;-69
2021/06/23 10:37:45;;;;;;;2.30;0.90;;;;;;;22.20;49.04;102284.75;5013587;28;20116;-70
2021/06/23 10:40:13;;;;;;;2.83;0.90;;;;;;;22.20;49.22;102288.25;5012413;28;20408;-69
2021/06/23 10:42:39;;;;;;;2.80;1.08;;;;;;;22.18;49.35;102287.63;4997197;28;20107;-70
2021/06/23 10:45:06;;;;;;;2.17;0.80;;;;;;;22.19;49.20;102283.09;5012524;28;20050;-69
2021/06/23 10:47:41;;;;;;;2.35;0.90;;;;;;;22.17;49.37;102288.63;5010412;28;20125;-69
2021/06/23 10:50:16;;;;;;;2.58;0.80;;;;;;;22.16;49.56;102291.47;5009416;28;20050;-69
2021/06/23 10:52:43;;;;;;;1.75;0.90;;;;;;;22.14;49.54;102283.63;5010118;28;20022;-70
2021/06/23 10:55:21;;;;;;;2.95;1.00;;;;;;;22.10;49.78;102283.16;5011963;28;20116;-70
2021/06/23 10:57:48;;;;;;;2.63;0.95;;;;;;;22.12;49.93;102283.00;5011672;28;20061;-71
2021/06/23 11:00:17;;;;;;;2.70;1.30;;;;;;;22.11;49.78;102281.31;5012155;28;20088;-69
2021/06/23 11:02:46;;;;;;;1.88;1.20;;;;;;;22.13;50.27;102287.31;5011457;28;20037;-70
2021/06/23 11:05:21;;;;;;;2.75;1.00;;;;;;;22.12;50.07;102280.31;5009320;28;20057;-70
2021/06/23 11:07:55;;;;;;;1.77;0.90;;;;;;;22.13;50.46;102283.81;5011899;28;20088;-70
2021/06/23 11:10:28;;;;;;;2.10;1.00;;;;;;;22.14;50.30;102293.50;5011458;28;20141;-70
2021/06/23 11:13:00;;;;;;;2.88;0.88;;;;;;;22.15;50.09;102287.97;4994047;28;20080;-70
2021/06/23 11:15:37;;;;;;;3.60;0.90;;;;;;;22.13;50.56;102287.31;5011310;28;20061;-70
2021/06/23 11:18:24;;;;;;;1.55;0.85;;;;;;;22.10;50.32;102285.00;5011096;28;20033;-70
2021/06/23 11:20:52;;;;;;;1.52;0.82;;;;;;;22.13;50.23;102284.66;5010321;28;20050;-70
2021/06/23 11:23:55;;;;;;;2.25;1.30;;;;;;;22.09;50.95;102292.19;5011543;28;20039;-70
2021/06/23 11:26:21;;;;;;;2.20;1.23;;;;;;;22.10;50.61;102285.84;5008391;28;20034;-70
2021/06/23 11:28:58;;;;;;;1.52;1.08;;;;;;;22.08;51.23;102282.50;5011624;28;20040;-70
2021/06/23 11:32:03;;;;;;;2.83;1.17;;;;;;;22.05;51.05;102285.53;5009507;28;20050;-70
2021/06/23 11:34:53;;;;;;;2.13;1.13;;;;;;;22.06;51.05;102284.50;4919718;29;20036;-69
2021/06/23 11:37:20;;;;;;;1.85;1.15;;;;;;;22.09;51.12;102275.31;5009858;28;20048;-70
2021/06/23 11:39:46;;;;;;;2.67;1.60;;;;;;;22.10;51.42;102280.50;4999183;28;20678;-70
2021/06/23 11:42:13;;;;;;;1.50;1.20;;;;;;;22.11;51.18;102284.00;4996680;28;20118;-70
2021/06/23 11:44:39;;;;;;;2.78;1.58;;;;;;;22.09;51.55;102278.84;5003884;28;20113;-70
2021/06/23 11:47:06;;;;;;;1.60;1.27;;;;;;;22.10;51.70;102282.34;5004609;28;20091;-70